Time;durP1;ratioP1;P1;durP2;ratioP2;P2;SDS_P1;SDS_P2;PMS_P1;PMS_P2;Temp;Humidity;BMP_temperature;BMP_pressure;BME280_temperature;BME280_humidity;BME280_pressure;Samples;Min_cycle;Max_cycle;Signal;HPM_P1;HPM_P2
2022/10/17 00:02:10;;;;;;;23.50;16.42;;;18.90;99.90;;;;;;5016709;28;20028;-72
2022/10/17 00:04:36;;;;;;;27.63;17.65;;;18.90;99.90;;;;;;5033923;28;20041;-72
2022/10/17 00:07:02;;;;;;;26.92;17.98;;;19.00;99.90;;;;;;5034245;28;20045;-74
2022/10/17 00:09:28;;;;;;;25.45;16.92;;;18.90;99.90;;;;;;5034329;28;20121;-72
2022/10/17 00:11:54;;;;;;;25.40;16.55;;;18.90;99.90;;;;;;5033898;28;20438;-73
2022/10/17 00:14:20;;;;;;;26.05;16.73;;;18.90;99.90;;;;;;5033751;28;20028;-72
2022/10/17 00:16:46;;;;;;;24.92;14.48;;;18.90;99.90;;;;;;5033640;28;20026;-72
2022/10/17 00:19:13;;;;;;;27.57;17.07;;;18.80;99.90;;;;;;5033956;28;20502;-72
2022/10/17 00:21:39;;;;;;;29.13;17.73;;;18.80;99.90;;;;;;5016022;28;20366;-73
2022/10/17 00:24:05;;;;;;;26.67;17.85;;;18.80;99.90;;;;;;5033758;28;20416;-72
2022/10/17 00:26:31;;;;;;;23.63;16.42;;;18.80;99.90;;;;;;5033687;28;20098;-74
2022/10/17 00:28:58;;;;;;;25.83;16.35;;;18.80;99.90;;;;;;5015779;28;20388;-74
2022/10/17 00:31:25;;;;;;;27.73;17.48;;;18.80;99.90;;;;;;5033759;28;20041;-74
2022/10/17 00:33:52;;;;;;;25.70;16.95;;;18.80;99.90;;;;;;5033720;28;20033;-72
2022/10/17 00:36:21;;;;;;;25.40;16.42;;;18.80;99.90;;;;;;5015859;28;20142;-70
2022/10/17 00:38:50;;;;;;;24.95;17.05;;;18.80;99.90;;;;;;5015637;28;20026;-72
2022/10/17 00:41:20;;;;;;;26.55;17.50;;;18.90;99.90;;;;;;5033417;28;20021;-74
2022/10/17 00:43:57;;;;;;;21.88;15.35;;;18.80;99.90;;;;;;5032429;28;20032;-72
2022/10/17 00:46:26;;;;;;;23.80;15.13;;;18.80;99.90;;;;;;5033543;28;20073;-73
2022/10/17 00:48:54;;;;;;;24.25;16.98;;;18.80;99.90;;;;;;5033592;28;20415;-73
2022/10/17 00:51:25;;;;;;;25.63;16.55;;;18.80;99.90;;;;;;5033497;28;20501;-72
2022/10/17 00:53:51;;;;;;;24.17;15.68;;;18.80;99.90;;;;;;5033605;28;20026;-74
2022/10/17 00:56:19;;;;;;;25.77;16.27;;;18.80;99.90;;;;;;5033028;28;20072;-73
2022/10/17 00:58:46;;;;;;;23.02;15.88;;;18.80;99.90;;;;;;5033266;28;20026;-73
2022/10/17 01:01:12;;;;;;;27.98;16.30;;;18.80;99.90;;;;;;5033410;28;20025;-74
2022/10/17 01:03:38;;;;;;;23.88;16.35;;;18.80;99.90;;;;;;5033216;28;20036;-72
2022/10/17 01:06:04;;;;;;;22.13;15.82;;;18.90;99.90;;;;;;5014943;28;20049;-73
2022/10/17 01:08:32;;;;;;;22.77;15.63;;;18.90;99.90;;;;;;5014903;28;20029;-72
2022/10/17 01:11:24;;;;;;;25.35;17.05;;;18.80;99.90;;;;;;5032838;28;20500;-72
2022/10/17 01:13:59;;;;;;;21.08;14.65;;;18.90;99.90;;;;;;5033262;28;20017;-72
2022/10/17 01:16:53;;;;;;;20.83;14.57;;;18.90;99.90;;;;;;5033149;28;20025;-73
2022/10/17 01:19:31;;;;;;;24.45;15.73;;;19.00;99.90;;;;;;5011935;28;20029;-75
2022/10/17 01:22:29;;;;;;;25.15;15.75;;;19.00;99.90;;;;;;4995380;28;20131;-73
2022/10/17 01:25:26;;;;;;;20.25;14.70;;;18.90;99.90;;;;;;4972069;28;20411;-73
2022/10/17 01:28:08;;;;;;;22.17;15.80;;;18.80;99.90;;;;;;5013732;28;20030;-72
2022/10/17 01:30:43;;;;;;;19.30;14.13;;;18.80;99.90;;;;;;5024909;28;20033;-72
2022/10/17 01:33:19;;;;;;;20.23;14.80;;;18.80;99.90;;;;;;5015359;28;20096;-71
2022/10/17 01:35:54;;;;;;;23.80;15.88;;;18.80;99.90;;;;;;5021386;28;20026;-72
2022/10/17 01:38:33;;;;;;;25.67;15.57;;;18.80;99.90;;;;;;5020934;28;20024;-70
2022/10/17 01:41:21;;;;;;;21.83;14.65;;;18.70;99.90;;;;;;5002888;28;20410;-73
2022/10/17 01:44:08;;;;;;;23.58;15.07;;;18.70;99.90;;;;;;5020240;28;20022;-73
2022/10/17 01:46:47;;;;;;;23.25;15.30;;;18.70;99.90;;;;;;5012128;28;20130;-73
2022/10/17 01:49:15;;;;;;;24.10;15.30;;;18.70;99.90;;;;;;5012730;28;20029;-73
2022/10/17 01:51:48;;;;;;;19.35;14.25;;;18.70;99.90;;;;;;5012729;28;20022;-73
2022/10/17 01:54:24;;;;;;;20.95;14.63;;;18.70;99.90;;;;;;5012348;28;20042;-73
2022/10/17 01:56:57;;;;;;;20.13;15.18;;;18.70;99.90;;;;;;5012020;28;20109;-71
2022/10/17 01:59:28;;;;;;;19.92;13.95;;;18.70;99.90;;;;;;5012794;28;20064;-73
2022/10/17 02:01:57;;;;;;;19.45;14.27;;;18.70;99.90;;;;;;4994728;28;20477;-73
2022/10/17 02:04:24;;;;;;;21.70;15.20;;;18.70;99.90;;;;;;5011955;28;20050;-73
2022/10/17 02:06:50;;;;;;;21.85;14.70;;;18.70;99.90;;;;;;4994373;28;20030;-73
2022/10/17 02:09:17;;;;;;;22.58;13.98;;;18.80;99.90;;;;;;5012111;28;20100;-72
2022/10/17 02:11:59;;;;;;;18.70;14.43;;;18.90;99.90;;;;;;5011863;28;20021;-73
2022/10/17 02:14:46;;;;;;;20.10;12.90;;;18.90;99.90;;;;;;5012254;28;20395;-73
2022/10/17 02:17:26;;;;;;;20.73;14.20;;;18.90;99.90;;;;;;5011620;28;20026;-73
2022/10/17 02:20:29;;;;;;;22.40;14.65;;;18.90;99.90;;;;;;5012359;28;20027;-73
2022/10/17 02:23:07;;;;;;;20.80;14.55;;;18.90;99.90;;;;;;5011951;28;20050;-73
2022/10/17 02:25:40;;;;;;;18.77;13.35;;;18.80;99.90;;;;;;5012137;28;20065;-74
2022/10/17 02:28:20;;;;;;;21.17;14.50;;;18.90;99.90;;;;;;5011782;28;20072;-72
2022/10/17 02:31:19;;;;;;;19.73;12.65;;;18.90;99.90;;;;;;5010819;28;20057;-72
2022/10/17 02:34:05;;;;;;;19.17;13.32;;;18.90;99.90;;;;;;5010525;28;20124;-73
2022/10/17 02:36:44;;;;;;;20.95;14.13;;;18.90;99.90;;;;;;5011372;28;20100;-72
2022/10/17 02:39:11;;;;;;;21.33;14.40;;;18.80;99.90;;;;;;4993498;28;20034;-73
2022/10/17 02:41:39;;;;;;;17.65;13.15;;;18.70;99.90;;;;;;5011001;28;20093;-72
2022/10/17 02:44:07;;;;;;;19.00;13.25;;;18.80;99.90;;;;;;5010992;28;20030;-72
2022/10/17 02:46:36;;;;;;;17.65;13.25;;;18.70;99.90;;;;;;5011030;28;20068;-72
2022/10/17 02:49:11;;;;;;;19.15;13.13;;;18.70;99.90;;;;;;5010988;28;20024;-73
2022/10/17 02:51:46;;;;;;;18.95;13.77;;;18.60;99.90;;;;;;4993786;28;20441;-72
2022/10/17 02:54:18;;;;;;;20.13;12.70;;;18.60;99.90;;;;;;5010770;28;20054;-72
2022/10/17 02:56:59;;;;;;;17.55;13.60;;;18.60;99.90;;;;;;5010933;28;20033;-72
2022/10/17 02:59:28;;;;;;;23.02;14.15;;;18.50;99.90;;;;;;5010881;28;20030;-72
2022/10/17 03:01:54;;;;;;;20.25;14.82;;;18.50;99.90;;;;;;5010687;28;20069;-72
2022/10/17 03:04:21;;;;;;;24.65;15.20;;;18.50;99.90;;;;;;4992620;28;20084;-72
2022/10/17 03:06:49;;;;;;;22.92;15.95;;;18.50;99.90;;;;;;5010978;28;20034;-72
2022/10/17 03:09:15;;;;;;;22.35;14.82;;;18.50;99.90;;;;;;5015361;28;20022;-72
2022/10/17 03:11:41;;;;;;;23.67;15.65;;;18.50;99.90;;;;;;5015761;28;20022;-72
2022/10/17 03:14:07;;;;;;;22.08;14.57;;;18.50;99.90;;;;;;5015589;28;20497;-73
2022/10/17 03:16:33;;;;;;;18.83;14.27;;;18.60;99.90;;;;;;5015558;28;20026;-73
2022/10/17 03:18:59;;;;;;;20.00;13.65;;;18.60;99.90;;;;;;4997261;28;20461;-72
2022/10/17 03:21:25;;;;;;;19.35;12.90;;;18.60;99.90;;;;;;5015283;28;20109;-72
2022/10/17 03:23:52;;;;;;;18.48;14.02;;;18.70;99.90;;;;;;5015156;28;20079;-73
2022/10/17 03:26:19;;;;;;;19.67;13.43;;;18.80;99.90;;;;;;5015798;28;20072;-73
2022/10/17 03:28:45;;;;;;;20.10;13.73;;;18.80;99.90;;;;;;5015980;28;20076;-72
2022/10/17 03:31:16;;;;;;;19.02;13.43;;;18.70;99.90;;;;;;5015760;28;20046;-72
2022/10/17 03:33:42;;;;;;;19.02;13.60;;;18.70;99.90;;;;;;5015900;28;20053;-72
2022/10/17 03:36:15;;;;;;;22.40;13.05;;;18.70;99.90;;;;;;5015613;28;20030;-72
2022/10/17 03:38:41;;;;;;;19.77;13.18;;;18.70;99.90;;;;;;4999037;28;20315;-72
2022/10/17 03:41:08;;;;;;;19.77;13.63;;;18.70;99.90;;;;;;5016013;28;20406;-72
2022/10/17 03:43:34;;;;;;;;;;;18.60;99.90;;;;;;5015994;28;20104;-72
2022/10/17 03:46:00;;;;;;;17.70;13.20;;;18.60;99.90;;;;;;5015983;28;20360;-72
2022/10/17 03:48:28;;;;;;;17.85;13.25;;;18.60;99.90;;;;;;5015688;28;20026;-71
2022/10/17 03:51:00;;;;;;;20.92;14.38;;;18.70;99.90;;;;;;5015523;28;20033;-72
2022/10/17 03:53:27;;;;;;;18.00;13.23;;;18.70;99.90;;;;;;4981782;28;20033;-72
2022/10/17 03:55:53;;;;;;;18.67;13.70;;;18.60;99.90;;;;;;5015255;28;20093;-72
2022/10/17 03:58:20;;;;;;;20.25;14.02;;;18.60;99.90;;;;;;5015555;28;20037;-72
2022/10/17 04:00:46;;;;;;;17.48;13.90;;;18.50;99.90;;;;;;5015570;28;20414;-72
2022/10/17 04:03:12;;;;;;;19.10;14.27;;;18.50;99.90;;;;;;4998069;28;20037;-72
2022/10/17 04:05:38;;;;;;;22.65;15.05;;;18.50;99.90;;;;;;4996933;28;20054;-72
2022/10/17 04:08:05;;;;;;;23.95;14.60;;;18.50;99.90;;;;;;5014951;28;20157;-71
2022/10/17 04:10:31;;;;;;;20.50;14.77;;;18.50;99.90;;;;;;5015090;28;20025;-73
2022/10/17 04:12:57;;;;;;;19.70;14.18;;;18.50;99.90;;;;;;4997218;28;20042;-73
2022/10/17 04:15:23;;;;;;;21.50;15.18;;;18.50;99.90;;;;;;5014765;28;20014;-72
2022/10/17 04:17:50;;;;;;;23.02;14.88;;;18.50;99.90;;;;;;4997917;28;20033;-72
2022/10/17 04:20:17;;;;;;;24.63;13.98;;;18.40;99.90;;;;;;4998223;28;20030;-73
2022/10/17 04:22:42;;;;;;;;;;;18.40;99.90;;;;;;5016261;28;20026;-73
2022/10/17 04:25:09;;;;;;;;;;;18.40;99.90;;;;;;5016063;28;19955;-72
2022/10/17 04:27:35;;;;;;;19.88;12.88;;;18.50;99.90;;;;;;5016154;28;19906;-72
2022/10/17 04:30:02;;;;;;;20.42;13.48;;;18.50;99.90;;;;;;5015664;28;20037;-73
2022/10/17 04:32:28;;;;;;;17.60;12.70;;;18.50;99.90;;;;;;5016442;28;20049;-73
2022/10/17 04:34:54;;;;;;;21.40;13.40;;;18.50;99.90;;;;;;5015679;28;20030;-73
2022/10/17 04:37:20;;;;;;;21.45;12.63;;;18.50;99.90;;;;;;5015532;28;20136;-73
2022/10/17 04:39:46;;;;;;;16.92;12.10;;;18.40;99.90;;;;;;5015396;28;20110;-73
2022/10/17 04:42:12;;;;;;;18.40;12.65;;;18.50;99.90;;;;;;5015400;28;20037;-73
2022/10/17 04:44:38;;;;;;;21.17;13.47;;;18.50;99.90;;;;;;5015803;28;20018;-73
2022/10/17 04:47:06;;;;;;;20.48;11.95;;;18.40;99.90;;;;;;5017962;28;20316;-72
2022/10/17 04:49:33;;;;;;;16.73;11.73;;;18.40;99.90;;;;;;5027273;28;20036;-72
2022/10/17 04:51:59;;;;;;;17.92;12.23;;;18.40;99.90;;;;;;5026445;28;20032;-73
2022/10/17 04:54:25;;;;;;;16.73;12.05;;;18.40;99.90;;;;;;5022566;28;20037;-73
2022/10/17 04:56:52;;;;;;;18.42;12.32;;;18.50;99.90;;;;;;5024769;28;20025;-72
2022/10/17 04:59:18;;;;;;;19.02;12.40;;;18.40;99.90;;;;;;5004300;28;20037;-73
2022/10/17 05:01:44;;;;;;;18.30;11.85;;;18.30;99.90;;;;;;5021422;28;20033;-72
2022/10/17 05:04:10;;;;;;;17.73;12.00;;;18.30;99.90;;;;;;5016625;28;20026;-74
2022/10/17 05:06:36;;;;;;;19.25;12.27;;;18.40;99.90;;;;;;5022410;28;20301;-74
2022/10/17 05:09:03;;;;;;;25.80;12.38;;;18.40;99.90;;;;;;5021848;28;20587;-73
2022/10/17 05:11:29;;;;;;;17.33;11.80;;;18.40;99.90;;;;;;4996996;28;20042;-73
2022/10/17 05:13:58;;;;;;;17.13;11.70;;;18.40;99.90;;;;;;5013664;28;20125;-73
2022/10/17 05:16:26;;;;;;;19.13;12.25;;;18.40;99.90;;;;;;5014056;28;20044;-74
2022/10/17 05:18:55;;;;;;;15.82;11.48;;;18.30;99.90;;;;;;5026077;28;20413;-74
2022/10/17 05:21:25;;;;;;;19.08;12.15;;;18.30;99.90;;;;;;5033850;28;20053;-68
2022/10/17 05:23:51;;;;;;;20.73;12.57;;;18.30;99.90;;;;;;5015678;28;20095;-73
2022/10/17 05:26:18;;;;;;;18.65;12.07;;;18.30;99.90;;;;;;5033343;28;20029;-73
2022/10/17 05:28:44;;;;;;;;;;;18.30;99.90;;;;;;5015958;28;20022;-73
2022/10/17 05:31:11;;;;;;;15.82;10.68;;;18.30;99.90;;;;;;5021025;28;19912;-73
2022/10/17 05:33:38;;;;;;;17.55;11.27;;;18.40;99.90;;;;;;5013142;28;20022;-73
2022/10/17 05:36:05;;;;;;;15.52;11.13;;;18.40;99.90;;;;;;5032818;28;20057;-72
2022/10/17 05:38:31;;;;;;;15.05;9.80;;;18.30;99.90;;;;;;5033439;28;20405;-72
2022/10/17 05:40:58;;;;;;;15.15;10.73;;;18.30;99.90;;;;;;5032954;28;20076;-72
2022/10/17 05:43:24;;;;;;;19.35;12.07;;;18.30;99.90;;;;;;5014950;28;20096;-72
2022/10/17 05:45:51;;;;;;;18.13;11.23;;;18.40;99.90;;;;;;5032802;28;20061;-72
2022/10/17 05:48:17;;;;;;;17.73;10.63;;;18.70;99.90;;;;;;5030598;28;20025;-72
2022/10/17 05:50:43;;;;;;;15.20;10.77;;;18.90;99.90;;;;;;4994283;28;20072;-71
2022/10/17 05:53:09;;;;;;;16.95;10.63;;;19.20;99.90;;;;;;5012366;28;20166;-72
2022/10/17 05:55:36;;;;;;;15.95;10.48;;;19.50;99.90;;;;;;4994587;28;20121;-72
2022/10/17 05:58:05;;;;;;;14.10;8.68;;;19.80;99.90;;;;;;5012643;28;20026;-72
2022/10/17 06:00:31;;;;;;;14.90;9.93;;;20.10;99.90;;;;;;4994619;28;20426;-73
2022/10/17 06:03:00;;;;;;;16.48;9.73;;;20.40;99.90;;;;;;5012137;28;20498;-69
2022/10/17 06:05:26;;;;;;;15.63;10.43;;;20.70;99.90;;;;;;4987335;28;369226;-73
2022/10/17 06:07:52;;;;;;;15.98;9.70;;;21.10;99.90;;;;;;5007910;28;20048;-71
2022/10/17 06:10:18;;;;;;;20.77;9.15;;;21.50;99.90;;;;;;5012965;28;20704;-72
2022/10/17 06:12:45;;;;;;;18.27;9.18;;;22.10;99.90;;;;;;5013275;28;20025;-72
2022/10/17 06:15:12;;;;;;;12.02;8.35;;;22.40;99.90;;;;;;5012556;28;20445;-72
2022/10/17 06:17:38;;;;;;;10.77;7.65;;;22.80;99.90;;;;;;5012790;28;20022;-73
2022/10/17 06:20:05;;;;;;;13.65;7.70;;;23.10;99.90;;;;;;4996131;28;20379;-74
2022/10/17 06:22:31;;;;;;;13.90;6.82;;;23.60;99.90;;;;;;5012847;28;20022;-73
2022/10/17 06:24:57;;;;;;;10.25;6.63;;;24.10;99.90;;;;;;5012798;28;20030;-73
2022/10/17 06:27:44;;;;;;;11.02;7.72;;;24.70;99.90;;;;;;5012595;28;20092;-75
2022/10/17 06:30:10;;;;;;;8.48;6.43;;;24.80;99.90;;;;;;5013011;28;20026;-75
2022/10/17 06:32:38;;;;;;;10.10;6.32;;;24.90;99.90;;;;;;5012672;28;20101;-76
2022/10/17 06:35:09;;;;;;;8.90;6.30;;;24.80;99.90;;;;;;5013063;28;20467;-74
2022/10/17 06:37:36;;;;;;;9.35;5.97;;;25.00;99.90;;;;;;5013511;28;20025;-76
2022/10/17 06:40:10;;;;;;;9.00;5.78;;;25.10;99.90;;;;;;5012719;28;20550;-76
2022/10/17 06:42:38;;;;;;;7.45;5.70;;;25.40;99.90;;;;;;5013321;28;20031;-77
2022/10/17 06:45:05;;;;;;;7.38;5.80;;;26.00;99.90;;;;;;5012538;28;20116;-76
2022/10/17 06:47:31;;;;;;;7.88;5.78;;;26.10;99.90;;;;;;5012224;28;20053;-76
2022/10/17 06:50:22;;;;;;;8.35;5.20;;;25.80;99.90;;;;;;4994748;28;20034;-77
2022/10/17 06:52:51;;;;;;;8.38;5.32;;;26.00;99.90;;;;;;5013017;28;20029;-74
2022/10/17 06:55:18;;;;;;;8.70;5.53;;;26.30;99.90;;;;;;5012341;28;20029;-77
2022/10/17 06:57:46;;;;;;;7.32;5.47;;;26.30;99.90;;;;;;5012426;28;20160;-76
2022/10/17 07:00:19;;;;;;;8.30;5.43;;;26.40;99.90;;;;;;5012740;28;20030;-74
2022/10/17 07:02:45;;;;;;;9.30;5.43;;;26.10;99.90;;;;;;4994703;28;20026;-75
2022/10/17 07:05:11;;;;;;;8.30;5.72;;;25.60;99.90;;;;;;5012431;28;20446;-69
2022/10/17 07:07:37;;;;;;;8.70;5.90;;;25.60;99.90;;;;;;5012267;28;20041;-69
2022/10/17 07:10:07;;;;;;;8.45;5.80;;;25.70;99.90;;;;;;5019853;28;20056;-70
2022/10/17 07:12:34;;;;;;;10.07;5.68;;;25.50;99.90;;;;;;5032046;28;20029;-68
2022/10/17 07:15:00;;;;;;;10.63;5.32;;;25.60;99.90;;;;;;5032075;28;20029;-82
2022/10/17 07:17:26;;;;;;;7.18;5.28;;;26.30;99.90;;;;;;5031747;28;20022;-75
2022/10/17 07:19:53;;;;;;;8.73;5.20;;;26.30;99.90;;;;;;5014454;28;20493;-75
2022/10/17 07:22:31;;;;;;;9.27;5.38;;;26.30;99.90;;;;;;5032668;28;20029;-78
2022/10/17 07:24:58;;;;;;;9.32;5.28;;;25.90;99.90;;;;;;5032120;28;20027;-80
2022/10/17 07:27:24;;;;;;;9.18;4.97;;;25.80;99.90;;;;;;5032259;28;20486;-79
2022/10/17 07:29:51;;;;;;;10.52;5.10;;;25.40;99.90;;;;;;5032017;28;20052;-79
2022/10/17 07:32:33;;;;;;;9.10;5.60;;;25.00;99.90;;;;;;5014387;28;20113;-78
2022/10/17 07:34:59;;;;;;;9.05;5.53;;;24.30;99.90;;;;;;5032147;28;20572;-77
2022/10/17 07:37:25;;;;;;;8.25;5.65;;;24.00;99.90;;;;;;5032738;28;20056;-78
2022/10/17 07:39:51;;;;;;;8.43;5.88;;;24.00;99.90;;;;;;5031967;28;20030;-77
2022/10/17 07:42:20;;;;;;;8.68;5.70;;;24.10;99.90;;;;;;5014822;28;20121;-77
2022/10/17 07:44:47;;;;;;;11.93;5.25;;;24.00;99.90;;;;;;5031629;28;20374;-77
2022/10/17 07:47:14;;;;;;;11.18;6.35;;;23.90;99.90;;;;;;5032349;28;20094;-78
2022/10/17 07:49:42;;;;;;;9.40;5.68;;;23.80;99.90;;;;;;5030922;28;20030;-78
2022/10/17 07:52:13;;;;;;;11.32;6.00;;;23.90;99.90;;;;;;5031475;28;20038;-78
2022/10/17 07:54:39;;;;;;;8.43;5.15;;;24.20;99.90;;;;;;5033725;28;20029;-78
2022/10/17 07:57:05;;;;;;;9.45;5.00;;;24.30;99.90;;;;;;5016567;28;20035;-78
2022/10/17 07:59:43;;;;;;;7.93;4.88;;;24.60;99.90;;;;;;5034378;28;20029;-77
2022/10/17 08:02:20;;;;;;;9.27;5.15;;;24.80;99.90;;;;;;5034634;28;20030;-75
2022/10/17 08:04:47;;;;;;;10.90;5.63;;;25.00;99.90;;;;;;5034243;28;20573;-79
2022/10/17 08:07:14;;;;;;;8.65;5.72;;;25.00;99.90;;;;;;5034587;28;20073;-78
2022/10/17 08:09:41;;;;;;;10.05;5.70;;;24.90;99.90;;;;;;5034551;28;20563;-78
2022/10/17 08:12:07;;;;;;;7.63;5.22;;;24.70;99.90;;;;;;5016365;28;20025;-77
2022/10/17 08:14:34;;;;;;;7.95;5.45;;;24.60;99.90;;;;;;5034389;28;20095;-79
2022/10/17 08:17:00;;;;;;;9.15;5.68;;;24.90;99.90;;;;;;5034670;28;20029;-77
2022/10/17 08:19:27;;;;;;;8.40;4.70;;;25.20;99.90;;;;;;5034928;28;20022;-78
2022/10/17 08:21:53;;;;;;;7.20;4.88;;;24.80;99.90;;;;;;5035141;28;20508;-78
2022/10/17 08:24:20;;;;;;;13.40;4.75;;;24.90;99.90;;;;;;5035539;28;20029;-77
2022/10/17 08:26:46;;;;;;;8.52;4.40;;;25.00;99.90;;;;;;5035302;28;20036;-77
2022/10/17 08:29:14;;;;;;;10.15;5.00;;;25.20;99.90;;;;;;5035189;28;20103;-79
2022/10/17 08:31:41;;;;;;;9.13;4.90;;;25.50;99.90;;;;;;5034999;28;20053;-78
2022/10/17 08:34:07;;;;;;;12.32;4.68;;;25.70;99.90;;;;;;5035080;28;20033;-78
2022/10/17 08:36:33;;;;;;;9.18;4.57;;;25.70;99.90;;;;;;5034881;28;20026;-79
2022/10/17 08:39:00;;;;;;;6.18;4.28;;;25.40;99.90;;;;;;5034471;28;20100;-76
2022/10/17 08:42:03;;;;;;;6.85;4.15;;;25.10;99.90;;;;;;5034599;28;20036;-77
2022/10/17 08:44:58;;;;;;;7.05;4.18;;;24.80;99.90;;;;;;5035254;28;20029;-78
2022/10/17 08:47:39;;;;;;;8.85;4.60;;;25.10;99.90;;;;;;5035311;28;20042;-76
2022/10/17 08:50:34;;;;;;;6.35;3.70;;;25.30;99.90;;;;;;5016383;28;20702;-78
2022/10/17 08:53:01;;;;;;;;;;;25.10;99.90;;;;;;5034221;28;20045;-78
2022/10/17 08:55:45;;;;;;;7.85;3.55;;;25.20;99.90;;;;;;5016165;28;19912;-78
2022/10/17 08:58:22;;;;;;;10.07;4.70;;;25.50;99.90;;;;;;5015773;28;20116;-78
2022/10/17 09:01:12;;;;;;;9.35;4.78;;;25.80;99.90;;;;;;5033753;28;20033;-77
2022/10/17 09:03:52;;;;;;;8.02;4.95;;;26.20;99.90;;;;;;5033634;28;20022;-79
2022/10/17 09:06:42;;;;;;;8.73;5.32;;;26.40;99.90;;;;;;5032369;28;20049;-78
2022/10/17 09:09:19;;;;;;;13.20;5.65;;;26.80;99.90;;;;;;5015736;28;20021;-78
2022/10/17 09:12:26;;;;;;;9.18;4.43;;;26.90;99.90;;;;;;5015970;28;20028;-78
2022/10/17 09:15:22;;;;;;;26.42;10.13;;;27.10;99.90;;;;;;5033827;28;20032;-78
2022/10/17 09:17:54;;;;;;;31.73;12.35;;;27.40;99.90;;;;;;5033914;28;20466;-78
2022/10/17 09:20:48;;;;;;;27.92;10.90;;;27.60;99.90;;;;;;5033256;28;20038;-78
2022/10/17 09:23:26;;;;;;;15.10;7.72;;;27.70;99.90;;;;;;5034106;28;20026;-77
2022/10/17 09:25:54;;;;;;;22.40;9.95;;;27.40;99.90;;;;;;5033440;28;20046;-80
2022/10/17 09:28:36;;;;;;;15.50;7.65;;;27.50;99.90;;;;;;5015364;28;20029;-79
2022/10/17 09:31:12;;;;;;;10.20;6.90;;;27.60;99.90;;;;;;5016323;28;20025;-78
2022/10/17 09:33:45;;;;;;;15.55;7.55;;;27.20;99.90;;;;;;5033533;28;20033;-79
2022/10/17 09:36:16;;;;;;;14.10;7.15;;;27.30;99.90;;;;;;5033850;28;20128;-78
2022/10/17 09:38:49;;;;;;;10.95;6.70;;;27.40;99.90;;;;;;5033323;28;20428;-79
2022/10/17 09:41:19;;;;;;;9.55;6.75;;;27.70;99.90;;;;;;5033056;28;20071;-78
2022/10/17 09:43:46;;;;;;;11.90;6.47;;;27.80;99.90;;;;;;5032869;28;20022;-79
2022/10/17 09:46:30;;;;;;;14.70;7.38;;;27.60;99.90;;;;;;5032933;28;20033;-79
2022/10/17 09:49:20;;;;;;;26.83;18.50;;;27.40;99.90;;;;;;5014960;28;20478;-79
2022/10/17 09:51:52;;;;;;;10.65;6.60;;;27.20;99.90;;;;;;5030085;28;20343;-79
2022/10/17 09:54:28;;;;;;;11.45;7.85;;;27.30;99.90;;;;;;5032922;28;20490;-79
2022/10/17 09:57:07;;;;;;;13.68;9.52;;;27.50;99.90;;;;;;5033034;28;20022;-79
2022/10/17 09:59:43;;;;;;;12.27;8.02;;;27.30;99.90;;;;;;5014586;28;20040;-79
2022/10/17 10:02:12;;;;;;;12.95;9.32;;;27.30;99.90;;;;;;5032339;28;20152;-79
2022/10/17 10:05:16;;;;;;;13.55;7.68;;;27.00;99.90;;;;;;5032595;28;20052;-79
2022/10/17 10:07:58;;;;;;;11.80;7.68;;;26.90;99.90;;;;;;5033086;28;20108;-77
2022/10/17 10:10:26;;;;;;;8.60;6.45;;;26.50;99.90;;;;;;5032654;28;20025;-75
2022/10/17 10:13:17;;;;;;;8.80;5.90;;;26.70;99.90;;;;;;5014505;28;20385;-75
2022/10/17 10:15:47;;;;;;;12.10;6.05;;;26.80;99.90;;;;;;4998184;28;20080;-77
2022/10/17 10:18:29;;;;;;;9.80;6.18;;;27.00;99.90;;;;;;5032622;28;20385;-78
2022/10/17 10:21:08;;;;;;;8.00;5.90;;;26.60;99.90;;;;;;5015332;28;20049;-76
2022/10/17 10:23:39;;;;;;;11.13;6.65;;;26.90;99.90;;;;;;5014427;28;20146;-75
2022/10/17 10:26:26;;;;;;;10.93;5.65;;;26.90;99.90;;;;;;5015284;28;20045;-75
2022/10/17 10:28:57;;;;;;;11.20;6.53;;;27.20;99.90;;;;;;5031573;28;20031;-75
2022/10/17 10:31:31;;;;;;;10.23;5.97;;;27.10;99.90;;;;;;5032026;28;20378;-74
2022/10/17 10:34:01;;;;;;;11.57;5.95;;;27.30;99.90;;;;;;5032305;28;20418;-75
2022/10/17 10:36:48;;;;;;;8.45;5.35;;;27.50;99.90;;;;;;5032504;28;20111;-75
2022/10/17 10:39:36;;;;;;;9.77;5.70;;;27.00;99.90;;;;;;5015125;28;20064;-75
2022/10/17 10:42:06;;;;;;;8.70;4.78;;;27.10;99.90;;;;;;5015346;28;20071;-75
2022/10/17 10:44:35;;;;;;;11.80;6.85;;;27.30;99.90;;;;;;5015142;28;20026;-81
2022/10/17 10:47:14;;;;;;;10.10;5.82;;;27.20;99.90;;;;;;5014264;28;20553;-79
2022/10/17 10:49:41;;;;;;;9.07;5.65;;;27.10;99.90;;;;;;5032317;28;20447;-78
2022/10/17 10:52:13;;;;;;;8.70;5.20;;;27.00;99.90;;;;;;5031726;28;20433;-78
2022/10/17 10:54:47;;;;;;;8.98;5.13;;;27.00;99.90;;;;;;5032503;28;20034;-80
2022/10/17 10:57:22;;;;;;;8.85;5.72;;;27.00;99.90;;;;;;5031960;28;20095;-78
2022/10/17 11:00:11;;;;;;;11.63;6.18;;;27.20;99.90;;;;;;5032276;28;20026;-78
2022/10/17 11:03:17;;;;;;;9.02;5.25;;;27.10;99.90;;;;;;5031632;28;20025;-79
2022/10/17 11:05:53;;;;;;;10.07;6.03;;;27.20;99.90;;;;;;4932021;29;20048;-79
2022/10/17 11:08:34;;;;;;;10.10;5.82;;;26.90;99.90;;;;;;4916320;29;20155;-79
2022/10/17 11:11:44;;;;;;;9.45;5.20;;;27.20;99.90;;;;;;4932132;29;20119;-79
2022/10/17 11:14:26;;;;;;;10.32;5.45;;;27.30;99.90;;;;;;4931288;29;20043;-79
2022/10/17 11:17:05;;;;;;;10.63;5.68;;;27.30;99.90;;;;;;4931764;29;20131;-78
2022/10/17 11:19:43;;;;;;;8.93;4.93;;;27.30;99.90;;;;;;4933059;29;20063;-78
2022/10/17 11:22:33;;;;;;;8.07;5.18;;;27.40;99.90;;;;;;4932952;29;20545;-78
2022/10/17 11:25:35;;;;;;;9.50;4.97;;;27.40;99.90;;;;;;4916915;29;20461;-78
2022/10/17 11:28:13;;;;;;;7.90;4.95;;;27.20;99.90;;;;;;4932617;29;20040;-79
2022/10/17 11:30:44;;;;;;;9.55;5.20;;;27.00;99.90;;;;;;4936146;29;20122;-79
2022/10/17 11:33:15;;;;;;;8.05;5.00;;;27.00;99.90;;;;;;4936569;29;20036;-79
2022/10/17 11:35:45;;;;;;;10.98;5.70;;;27.10;99.90;;;;;;4920723;29;20043;-85
2022/10/17 11:38:40;;;;;;;10.32;5.57;;;27.10;99.90;;;;;;4936851;29;20048;-81
2022/10/17 11:41:13;;;;;;;9.25;5.53;;;27.20;99.90;;;;;;4934892;29;20433;-80
2022/10/17 11:43:56;;;;;;;12.77;5.30;;;27.20;99.90;;;;;;5032684;28;20494;-79
2022/10/17 11:46:25;;;;;;;9.00;5.50;;;27.30;99.90;;;;;;5035862;28;20454;-79
2022/10/17 11:49:14;;;;;;;8.43;5.10;;;27.30;99.90;;;;;;5035485;28;20108;-79
2022/10/17 11:52:00;;;;;;;7.53;5.00;;;27.10;99.90;;;;;;5035403;28;20030;-79
2022/10/17 11:54:49;;;;;;;8.85;5.30;;;26.90;99.90;;;;;;5017774;28;20030;-79
2022/10/17 11:57:33;;;;;;;9.55;5.15;;;26.90;99.90;;;;;;5035491;28;20017;-79
2022/10/17 12:00:11;;;;;;;10.45;4.80;;;26.90;99.90;;;;;;5034878;28;20036;-79
2022/10/17 12:02:54;;;;;;;8.30;5.22;;;27.10;99.90;;;;;;5035309;28;20025;-79
2022/10/17 12:05:35;;;;;;;12.52;5.32;;;27.10;99.90;;;;;;5035150;28;20217;-79
2022/10/17 12:08:38;;;;;;;13.52;5.82;;;27.10;99.90;;;;;;5035006;28;20156;-79
2022/10/17 12:11:13;;;;;;;9.27;5.70;;;26.90;99.90;;;;;;5035087;28;20026;-79
2022/10/17 12:13:40;;;;;;;;;;;26.70;99.90;;;;;;5036291;28;20021;-78
2022/10/17 12:16:19;;;;;;;10.45;5.53;;;26.70;99.90;;;;;;5016923;28;19905;-77
2022/10/17 12:19:05;;;;;;;7.65;4.95;;;26.80;99.90;;;;;;5035825;28;20021;-77
2022/10/17 12:21:56;;;;;;;9.20;5.13;;;26.80;99.90;;;;;;5035663;28;20109;-78
2022/10/17 12:24:38;;;;;;;8.38;5.18;;;26.90;99.90;;;;;;5035726;28;20064;-77
2022/10/17 12:27:32;;;;;;;10.35;5.85;;;26.80;99.90;;;;;;5035759;28;20572;-77
2022/10/17 12:30:13;;;;;;;7.88;4.80;;;26.80;99.90;;;;;;5035654;28;20021;-78
2022/10/17 12:32:55;;;;;;;9.63;5.05;;;26.60;99.90;;;;;;5017761;28;20029;-76
2022/10/17 12:35:23;;;;;;;8.07;5.68;;;26.60;99.90;;;;;;5035687;28;20030;-77
2022/10/17 12:37:59;;;;;;;6.57;4.97;;;26.60;99.90;;;;;;5035069;28;20021;-76
2022/10/17 12:40:35;;;;;;;9.05;5.60;;;26.80;99.90;;;;;;5035110;28;20029;-77
2022/10/17 12:43:17;;;;;;;9.90;6.05;;;26.90;99.90;;;;;;5035098;28;20028;-77
2022/10/17 12:45:56;;;;;;;8.68;5.38;;;26.80;99.90;;;;;;5035282;28;20437;-77
2022/10/17 12:48:43;;;;;;;8.80;5.40;;;26.80;99.90;;;;;;5034999;28;20037;-77
2022/10/17 12:51:12;;;;;;;9.95;5.43;;;26.80;99.90;;;;;;5034918;28;20025;-78
2022/10/17 12:53:58;;;;;;;9.60;5.40;;;26.70;99.90;;;;;;5034876;28;20048;-78
2022/10/17 12:56:41;;;;;;;9.77;5.93;;;26.40;99.90;;;;;;5034795;28;20116;-77
2022/10/17 12:59:15;;;;;;;10.45;5.57;;;26.50;99.90;;;;;;5034859;28;20057;-77
2022/10/17 13:01:46;;;;;;;10.55;5.38;;;26.70;99.90;;;;;;5034809;28;20432;-76
2022/10/17 13:04:13;;;;;;;10.88;5.65;;;26.70;99.90;;;;;;5034206;28;20021;-77
2022/10/17 13:06:44;;;;;;;;;;;26.80;99.90;;;;;;5035014;28;20078;-78
2022/10/17 13:09:34;;;;;;;9.20;5.43;;;26.80;99.90;;;;;;5016646;28;19905;-77